createdAt,value
2018-12-12T00:00:28.756Z,4.27
2018-12-12T00:02:57.935Z,4.13
2018-12-12T00:05:28.731Z,3.73
2018-12-12T00:07:58.122Z,4.50
2018-12-12T00:10:29.676Z,4.70
2018-12-12T00:12:58.210Z,4.13
2018-12-12T00:15:28.124Z,5.10
2018-12-12T00:17:57.621Z,3.90
2018-12-12T00:20:27.787Z,4.43
2018-12-12T00:22:56.456Z,3.50
2018-12-12T00:25:28.563Z,3.77
2018-12-12T00:27:58.389Z,3.60
2018-12-12T00:30:28.059Z,3.60
2018-12-12T00:32:58.060Z,3.37
2018-12-12T00:35:28.150Z,3.57
2018-12-12T00:37:57.403Z,6.70
2018-12-12T00:40:27.175Z,7.97
2018-12-12T00:42:56.074Z,5.80
2018-12-12T00:45:25.443Z,5.53
2018-12-12T00:47:55.075Z,4.77
2018-12-12T00:50:25.111Z,6.03
2018-12-12T00:52:55.531Z,4.77
2018-12-12T00:55:25.097Z,3.90
2018-12-12T00:57:54.711Z,4.10
2018-12-12T01:00:24.293Z,5.37
2018-12-12T01:02:54.438Z,4.10
2018-12-12T01:05:24.814Z,3.70
2018-12-12T01:07:53.599Z,4.50
2018-12-12T01:10:24.436Z,3.37
2018-12-12T01:12:54.001Z,3.10
2018-12-12T01:15:23.272Z,3.60
2018-12-12T01:17:52.241Z,3.40
2018-12-12T01:20:20.804Z,2.70
2018-12-12T01:22:49.705Z,3.30
2018-12-12T01:25:18.339Z,4.10
2018-12-12T01:27:46.854Z,3.33
2018-12-12T01:30:16.882Z,3.93
2018-12-12T01:32:46.122Z,3.60
2018-12-12T01:35:15.525Z,3.80
2018-12-12T01:37:44.676Z,4.27
2018-12-12T01:40:14.111Z,4.50
2018-12-12T01:42:44.995Z,5.73
2018-12-12T01:45:17.802Z,4.60
2018-12-12T01:47:47.357Z,5.20
2018-12-12T01:50:16.403Z,3.40
2018-12-12T01:52:45.085Z,4.20
2018-12-12T01:55:14.665Z,4.90
2018-12-12T01:57:44.762Z,5.10
2018-12-12T02:00:14.528Z,4.20
2018-12-12T02:02:44.787Z,5.03
2018-12-12T02:05:14.446Z,4.00
2018-12-12T02:07:45.812Z,6.17
2018-12-12T02:10:15.384Z,4.80
2018-12-12T02:12:45.286Z,5.00
2018-12-12T02:15:16.277Z,4.60
2018-12-12T02:17:49.657Z,4.50
2018-12-12T02:20:20.012Z,3.53
2018-12-12T02:22:51.381Z,4.60
2018-12-12T02:25:20.999Z,5.10
2018-12-12T02:27:49.991Z,4.83
2018-12-12T02:30:21.168Z,5.03
2018-12-12T02:32:51.646Z,4.67
2018-12-12T02:35:20.477Z,3.30
2018-12-12T02:37:50.599Z,4.37
2018-12-12T02:40:20.898Z,4.10
2018-12-12T02:42:50.918Z,5.07
2018-12-12T02:45:20.634Z,3.57
2018-12-12T02:47:49.310Z,5.00
2018-12-12T02:50:17.943Z,4.60
2018-12-12T02:52:47.546Z,5.33
2018-12-12T02:55:17.090Z,5.27
2018-12-12T02:57:46.195Z,5.70
2018-12-12T03:00:15.607Z,4.87
2018-12-12T03:02:44.784Z,4.97
2018-12-12T03:05:13.749Z,4.90
2018-12-12T03:07:42.464Z,5.00
2018-12-12T03:10:12.239Z,5.00
2018-12-12T03:12:44.174Z,4.60
2018-12-12T03:15:13.035Z,4.50
2018-12-12T03:17:44.063Z,5.63
2018-12-12T03:20:13.787Z,4.40
2018-12-12T03:22:45.651Z,3.70
2018-12-12T03:25:15.962Z,4.60
2018-12-12T03:27:45.594Z,4.60
2018-12-12T03:30:14.889Z,4.73
2018-12-12T03:32:45.013Z,4.90
2018-12-12T03:35:14.971Z,5.90
2018-12-12T03:37:43.686Z,4.23
2018-12-12T03:40:14.122Z,4.83
2018-12-12T03:42:46.455Z,4.27
2018-12-12T03:45:15.668Z,4.27
2018-12-12T03:47:45.069Z,4.80
2018-12-12T03:50:14.403Z,4.50
2018-12-12T03:52:44.575Z,5.20
2018-12-12T03:55:14.610Z,5.40
2018-12-12T03:57:43.735Z,4.40
2018-12-12T04:00:13.625Z,4.50
2018-12-12T04:02:42.193Z,4.73
2018-12-12T04:05:10.962Z,4.77
2018-12-12T04:07:40.423Z,4.30
2018-12-12T04:10:10.438Z,3.80
2018-12-12T04:12:39.863Z,4.57
2018-12-12T04:15:10.072Z,4.40
2018-12-12T04:17:40.983Z,4.50
2018-12-12T04:20:12.277Z,4.60
2018-12-12T04:22:41.359Z,4.63
2018-12-12T04:25:11.775Z,4.50
2018-12-12T04:27:40.351Z,6.00
2018-12-12T04:30:09.234Z,4.50
2018-12-12T04:32:39.003Z,5.03
2018-12-12T04:35:09.085Z,5.10
2018-12-12T04:37:39.064Z,5.00
2018-12-12T04:40:09.655Z,4.47
2018-12-12T04:42:40.574Z,4.60
2018-12-12T04:45:09.794Z,5.10
2018-12-12T04:47:54.280Z,4.17
2018-12-12T04:50:22.935Z,4.87
2018-12-12T04:52:51.847Z,4.33
2018-12-12T04:55:22.008Z,5.40
2018-12-12T04:57:55.941Z,5.27
2018-12-12T05:00:26.335Z,5.53
2018-12-12T05:02:58.226Z,4.70
2018-12-12T05:06:56.777Z,4.80
2018-12-12T05:09:27.397Z,5.10
2018-12-12T05:11:59.373Z,5.60
2018-12-12T05:14:30.452Z,5.03
2018-12-12T05:16:58.995Z,5.57
2018-12-12T05:19:27.879Z,5.07
2018-12-12T05:21:57.922Z,5.17
2018-12-12T05:24:28.110Z,4.87
2018-12-12T05:26:57.149Z,5.00
2018-12-12T05:29:30.116Z,5.40
2018-12-12T05:32:03.541Z,5.93
2018-12-12T05:34:34.197Z,6.07
2018-12-12T05:37:04.650Z,5.70
2018-12-12T05:39:34.682Z,5.73
2018-12-12T05:42:05.102Z,5.10
2018-12-12T05:44:36.172Z,6.57
2018-12-12T05:47:06.570Z,5.20
2018-12-12T05:49:36.319Z,5.90
2018-12-12T05:52:07.439Z,5.47
2018-12-12T05:54:45.732Z,5.53
2018-12-12T05:57:16.135Z,4.70
2018-12-12T05:59:45.104Z,5.30
2018-12-12T06:02:17.028Z,4.50
2018-12-12T06:04:46.479Z,5.00
2018-12-12T06:07:16.949Z,5.27
2018-12-12T06:09:46.001Z,5.97
2018-12-12T06:12:15.442Z,4.93
2018-12-12T06:14:44.458Z,7.97
2018-12-12T06:17:13.256Z,7.50
2018-12-12T06:19:44.390Z,6.80
2018-12-12T06:22:15.140Z,7.23
2018-12-12T06:24:44.138Z,9.57
2018-12-12T06:27:13.238Z,7.00
2018-12-12T06:29:43.467Z,7.00
2018-12-12T06:32:12.937Z,9.87
2018-12-12T06:34:43.533Z,7.60
2018-12-12T06:37:29.601Z,7.13
2018-12-12T06:40:00.083Z,4.70
2018-12-12T06:42:31.978Z,7.33
2018-12-12T06:45:01.922Z,7.10
2018-12-12T06:47:30.471Z,7.87
2018-12-12T06:50:03.126Z,7.80
2018-12-12T06:52:32.717Z,6.47
2018-12-12T06:55:06.596Z,6.10
2018-12-12T06:57:36.218Z,7.60
2018-12-12T07:00:06.697Z,7.10
2018-12-12T07:02:35.554Z,7.87
2018-12-12T07:05:04.783Z,6.93
2018-12-12T07:07:33.503Z,7.50
2018-12-12T07:10:03.635Z,7.17
2018-12-12T07:12:32.716Z,6.80
2018-12-12T07:15:02.914Z,6.03
2018-12-12T07:17:33.701Z,8.93
2018-12-12T07:20:08.677Z,7.20
2018-12-12T07:22:40.662Z,8.60
2018-12-12T07:25:09.665Z,8.70
2018-12-12T07:27:39.424Z,7.90
2018-12-12T07:30:09.202Z,7.93
2018-12-12T07:32:38.101Z,7.00
2018-12-12T07:35:10.675Z,8.10
2018-12-12T07:38:10.470Z,6.97
2018-12-12T07:40:40.459Z,8.77
2018-12-12T07:43:11.284Z,6.63
2018-12-12T07:45:41.646Z,7.20
2018-12-12T07:48:11.565Z,6.30
2018-12-12T07:50:41.752Z,6.40
2018-12-12T07:53:11.263Z,7.53
2018-12-12T07:55:40.561Z,6.37
2018-12-12T07:58:09.915Z,7.30
2018-12-12T08:00:39.831Z,7.47
2018-12-12T08:03:09.389Z,7.57
2018-12-12T08:05:40.074Z,7.57
2018-12-12T08:08:11.908Z,5.90
2018-12-12T08:10:41.614Z,8.00
2018-12-12T08:13:12.028Z,8.00
2018-12-12T08:15:41.223Z,7.87
2018-12-12T08:18:11.547Z,10.63
2018-12-12T08:20:40.531Z,9.47
2018-12-12T08:23:11.368Z,6.90
2018-12-12T08:25:42.422Z,9.03
2018-12-12T08:28:11.435Z,10.00
2018-12-12T08:30:41.503Z,10.70
2018-12-12T08:33:11.749Z,8.73
2018-12-12T08:35:41.021Z,8.87
2018-12-12T08:38:10.140Z,9.40
2018-12-12T08:40:40.405Z,10.70
2018-12-12T08:43:10.003Z,11.90
2018-12-12T08:45:40.004Z,12.43
2018-12-12T08:48:10.105Z,10.93
2018-12-12T08:50:38.680Z,10.43
2018-12-12T08:53:10.151Z,10.70
2018-12-12T08:55:39.305Z,11.90
2018-12-12T08:58:10.928Z,11.47
2018-12-12T09:00:41.859Z,10.23
2018-12-12T09:03:17.506Z,10.20
2018-12-12T09:05:47.684Z,9.63
2018-12-12T09:08:16.790Z,12.37
2018-12-12T09:10:47.143Z,11.07
2018-12-12T09:13:15.906Z,8.80
2018-12-12T09:15:45.355Z,8.40
2018-12-12T09:18:19.964Z,5.87
2018-12-12T09:20:51.535Z,8.10
2018-12-12T09:23:20.102Z,6.53
2018-12-12T09:25:49.825Z,7.73
2018-12-12T09:28:18.955Z,8.40
2018-12-12T09:30:48.370Z,8.20
2018-12-12T09:33:27.251Z,7.43
2018-12-12T09:35:56.904Z,9.43
2018-12-12T09:38:27.538Z,8.60
2018-12-12T09:40:57.902Z,9.53
2018-12-12T09:46:09.471Z,8.67
2018-12-12T09:48:40.087Z,9.17
2018-12-12T09:51:08.633Z,8.90
2018-12-12T09:53:38.144Z,11.30
2018-12-12T09:56:07.533Z,8.50
2018-12-12T09:58:37.002Z,10.47
2018-12-12T10:01:06.807Z,10.50
2018-12-12T10:03:35.475Z,9.90
2018-12-12T10:06:36.911Z,10.33
2018-12-12T10:09:08.020Z,11.43
2018-12-12T10:11:39.671Z,10.57
2018-12-12T10:14:10.213Z,10.80
2018-12-12T10:21:10.919Z,9.20
2018-12-12T10:23:40.392Z,9.77
2018-12-12T10:26:09.575Z,9.27
2018-12-12T10:28:38.678Z,11.07
2018-12-12T10:31:08.451Z,10.63
2018-12-12T10:33:38.041Z,9.73
2018-12-12T10:36:07.122Z,11.20
2018-12-12T10:38:36.762Z,12.27
2018-12-12T10:41:07.784Z,10.63
2018-12-12T10:43:38.020Z,8.37
2018-12-12T10:46:07.973Z,10.07
2018-12-12T10:48:37.143Z,11.53
2018-12-12T10:51:07.595Z,10.20
2018-12-12T10:53:39.184Z,12.17
2018-12-12T10:56:09.807Z,9.97
2018-12-12T10:58:39.338Z,10.53
2018-12-12T11:02:14.699Z,9.90
2018-12-12T11:04:45.138Z,8.60
2018-12-12T11:07:14.835Z,9.90
2018-12-12T11:09:45.197Z,9.80
2018-12-12T11:12:14.905Z,11.70
2018-12-12T11:14:44.113Z,10.37
2018-12-12T11:17:14.691Z,11.93
2018-12-12T11:19:43.964Z,11.07
2018-12-12T11:22:13.941Z,11.77
2018-12-12T11:24:45.163Z,10.60
2018-12-12T11:27:16.030Z,11.43
2018-12-12T11:29:46.736Z,10.07
2018-12-12T11:32:17.394Z,10.20
2018-12-12T11:34:49.251Z,9.73
2018-12-12T11:37:20.306Z,10.30
2018-12-12T11:39:49.018Z,12.57
2018-12-12T11:42:23.804Z,10.30
2018-12-12T11:44:52.639Z,9.33
2018-12-12T11:47:24.028Z,9.17
2018-12-12T11:49:52.565Z,8.70
2018-12-12T11:52:26.129Z,9.07
2018-12-12T11:54:54.739Z,8.57
2018-12-12T11:57:28.829Z,10.27
2018-12-12T11:59:59.303Z,9.17
2018-12-12T12:02:28.129Z,9.93
2018-12-12T12:04:57.650Z,9.03
2018-12-12T12:07:27.903Z,9.63
2018-12-12T12:09:58.196Z,10.40
2018-12-12T12:12:28.637Z,8.37
2018-12-12T12:14:57.836Z,8.90
2018-12-12T12:17:27.866Z,9.70
2018-12-12T12:19:57.525Z,7.77
2018-12-12T12:22:31.375Z,8.27
2018-12-12T12:25:02.582Z,9.30
2018-12-12T12:27:32.471Z,9.60
2018-12-12T12:30:02.825Z,8.57
2018-12-12T12:32:34.265Z,8.50
2018-12-12T12:35:04.496Z,8.10
2018-12-12T12:37:33.423Z,7.70
2018-12-12T12:40:02.130Z,7.50
2018-12-12T12:42:31.986Z,6.90
2018-12-12T12:45:03.595Z,5.87
2018-12-12T12:47:33.926Z,7.77
2018-12-12T12:50:04.333Z,7.60
2018-12-12T12:52:34.188Z,6.30
2018-12-12T12:55:03.405Z,6.00
2018-12-12T12:57:33.253Z,5.50
2018-12-12T13:00:03.434Z,6.80
2018-12-12T13:02:33.597Z,7.07
2018-12-12T13:05:04.255Z,7.13
2018-12-12T13:07:36.768Z,6.03
2018-12-12T13:10:11.510Z,6.30
2018-12-12T13:12:39.943Z,7.60
2018-12-12T13:15:10.807Z,5.70
2018-12-12T13:17:40.421Z,6.10
2018-12-12T13:20:09.929Z,6.50
2018-12-12T13:22:39.931Z,5.80
2018-12-12T13:25:08.649Z,7.67
2018-12-12T13:27:38.227Z,7.50
2018-12-12T13:30:10.228Z,6.40
2018-12-12T13:32:39.838Z,8.40
2018-12-12T13:35:09.915Z,7.07
2018-12-12T13:37:39.426Z,7.57
2018-12-12T13:40:08.585Z,7.20
2018-12-12T13:42:39.403Z,6.40
2018-12-12T13:45:09.251Z,6.40
2018-12-12T13:47:37.828Z,6.30
2018-12-12T13:50:06.667Z,5.67
2018-12-12T13:52:36.278Z,7.40
2018-12-12T13:55:05.234Z,5.83
2018-12-12T13:57:33.830Z,7.40
2018-12-12T14:00:03.183Z,8.10
2018-12-12T14:02:31.859Z,7.10
2018-12-12T14:05:01.030Z,8.70
2018-12-12T14:07:31.853Z,6.60
2018-12-12T14:10:01.183Z,7.93
2018-12-12T14:12:30.152Z,7.10
2018-12-12T14:15:02.280Z,7.23
2018-12-12T14:17:30.892Z,6.43
2018-12-12T14:20:00.282Z,8.20
2018-12-12T14:22:31.504Z,6.43
2018-12-12T14:25:02.142Z,7.83
2018-12-12T14:27:32.064Z,7.63
2018-12-12T14:30:02.070Z,7.73
2018-12-12T14:32:32.787Z,7.73
2018-12-12T14:35:02.428Z,8.30
2018-12-12T14:37:31.129Z,9.13
2018-12-12T14:40:01.997Z,7.17
2018-12-12T14:42:34.874Z,9.00
2018-12-12T14:45:05.022Z,7.03
2018-12-12T14:47:33.991Z,7.00
2018-12-12T14:50:02.754Z,7.23
2018-12-12T14:52:32.547Z,8.33
2018-12-12T14:55:02.116Z,8.80
2018-12-12T14:57:31.977Z,6.87
2018-12-12T15:00:01.465Z,9.00
2018-12-12T15:02:32.874Z,7.47
2018-12-12T15:05:02.535Z,8.50
2018-12-12T15:07:32.375Z,8.17
2018-12-12T15:10:03.204Z,7.63
2018-12-12T15:12:33.868Z,7.33
2018-12-12T15:15:03.301Z,7.20
2018-12-12T15:17:33.329Z,8.87
2018-12-12T15:20:03.149Z,7.27
2018-12-12T15:22:34.353Z,7.40
2018-12-12T15:25:04.775Z,7.23
2018-12-12T15:27:34.606Z,7.00
2018-12-12T15:30:04.504Z,7.30
2018-12-12T15:32:33.465Z,8.33
2018-12-12T15:35:05.335Z,6.70
2018-12-12T15:37:35.656Z,8.00
2018-12-12T15:40:11.789Z,7.17
2018-12-12T15:42:40.997Z,7.40
2018-12-12T15:45:12.080Z,6.40
2018-12-12T15:47:42.762Z,7.80
2018-12-12T15:50:12.418Z,9.00
2018-12-12T15:52:41.728Z,9.10
2018-12-12T15:55:10.679Z,8.63
2018-12-12T15:57:40.358Z,7.00
2018-12-12T16:00:10.531Z,7.93
2018-12-12T16:02:41.265Z,7.60
2018-12-12T16:05:12.302Z,8.90
2018-12-12T16:07:42.116Z,8.90
2018-12-12T16:10:11.382Z,7.43
2018-12-12T16:12:40.803Z,8.60
2018-12-12T16:15:11.297Z,9.40
2018-12-12T16:17:49.434Z,9.83
2018-12-12T16:20:19.501Z,9.17
2018-12-12T16:22:48.266Z,9.60
2018-12-12T16:25:17.344Z,8.73
2018-12-12T16:27:47.250Z,8.77
2018-12-12T16:30:17.598Z,8.93
2018-12-12T16:32:48.775Z,8.50
2018-12-12T16:35:19.970Z,9.07
2018-12-12T16:37:49.861Z,10.77
2018-12-12T16:40:19.546Z,9.40
2018-12-12T16:42:49.995Z,8.90
2018-12-12T16:45:19.088Z,11.43
2018-12-12T16:47:48.346Z,9.43
2018-12-12T16:50:18.183Z,9.27
2018-12-12T16:52:50.307Z,11.53
2018-12-12T16:55:19.415Z,9.70
2018-12-12T16:57:48.318Z,10.53
2018-12-12T17:00:20.914Z,9.67
2018-12-12T17:02:50.422Z,11.43
2018-12-12T17:05:24.921Z,10.70
2018-12-12T17:07:53.654Z,9.13
2018-12-12T17:10:22.638Z,9.90
2018-12-12T17:12:51.969Z,9.70
2018-12-12T17:15:21.298Z,11.27
2018-12-12T17:17:49.964Z,9.83
2018-12-12T17:20:19.130Z,9.83
2018-12-12T17:22:48.539Z,10.30
2018-12-12T17:25:18.645Z,11.13
2018-12-12T17:27:48.063Z,10.93
2018-12-12T17:30:18.116Z,11.80
2018-12-12T17:32:51.156Z,11.93
2018-12-12T17:35:20.902Z,10.30
2018-12-12T17:37:50.656Z,10.90
2018-12-12T17:40:27.492Z,9.77
2018-12-12T17:42:57.426Z,11.47
2018-12-12T17:45:27.593Z,11.03
2018-12-12T17:47:57.852Z,11.10
2018-12-12T17:50:30.299Z,10.50
2018-12-12T17:52:59.653Z,10.03
2018-12-12T17:55:29.724Z,10.47
2018-12-12T17:58:01.406Z,10.60
2018-12-12T18:00:30.523Z,8.33
2018-12-12T18:03:00.103Z,9.93
2018-12-12T18:05:29.518Z,8.77
2018-12-12T18:08:00.586Z,9.47
2018-12-12T18:10:30.771Z,11.00
2018-12-12T18:12:59.858Z,11.20
2018-12-12T18:15:28.786Z,9.93
2018-12-12T18:17:59.375Z,9.17
2018-12-12T18:20:30.368Z,10.10
2018-12-12T18:23:00.954Z,9.10
2018-12-12T18:25:29.518Z,8.00
2018-12-12T18:27:59.674Z,7.40
2018-12-12T18:30:28.838Z,9.60
2018-12-12T18:32:59.486Z,7.73
2018-12-12T18:35:29.508Z,7.83
2018-12-12T18:38:00.114Z,8.93
2018-12-12T18:40:31.512Z,7.20
2018-12-12T18:43:01.085Z,8.77
2018-12-12T18:45:32.106Z,9.63
2018-12-12T18:48:02.215Z,9.67
2018-12-12T18:50:32.632Z,8.50
2018-12-12T18:53:02.275Z,7.37
2018-12-12T18:55:35.639Z,8.33
2018-12-12T18:58:05.577Z,9.10
2018-12-12T19:02:05.579Z,7.70
2018-12-12T19:04:35.074Z,6.77
2018-12-12T19:07:05.448Z,6.67
2018-12-12T19:09:34.121Z,7.20
2018-12-12T19:12:02.712Z,6.63
2018-12-12T19:14:31.815Z,7.13
2018-12-12T19:17:01.986Z,7.03
2018-12-12T19:19:33.460Z,5.70
2018-12-12T19:22:07.404Z,5.60
2018-12-12T19:24:46.976Z,6.40
2018-12-12T19:27:18.017Z,5.70
2018-12-12T19:29:47.601Z,5.00
2018-12-12T19:32:17.236Z,6.20
2018-12-12T19:34:49.934Z,5.57
2018-12-12T19:37:20.263Z,5.13
2018-12-12T19:39:49.049Z,5.73
2018-12-12T19:42:19.456Z,4.87
2018-12-12T19:44:48.471Z,5.53
2018-12-12T19:47:19.310Z,4.50
2018-12-12T19:49:49.768Z,4.60
2018-12-12T19:52:19.919Z,3.73
2018-12-12T19:54:49.404Z,3.83
2018-12-12T19:57:21.811Z,4.43
2018-12-12T19:59:50.915Z,4.13
2018-12-12T20:02:21.862Z,4.40
2018-12-12T20:04:51.236Z,4.90
2018-12-12T20:07:22.301Z,4.50
2018-12-12T20:09:52.660Z,3.83
2018-12-12T20:12:22.419Z,3.67
2018-12-12T20:14:52.711Z,5.50
2018-12-12T20:17:22.391Z,3.87
2018-12-12T20:19:51.378Z,4.33
2018-12-12T20:22:20.183Z,3.50
2018-12-12T20:24:49.730Z,4.60
2018-12-12T20:27:20.111Z,4.07
2018-12-12T20:29:49.784Z,3.57
2018-12-12T20:32:19.741Z,4.50
2018-12-12T20:34:49.216Z,4.23
2018-12-12T20:37:20.416Z,4.27
2018-12-12T20:39:51.139Z,4.40
2018-12-12T20:42:20.592Z,3.80
2018-12-12T20:44:50.101Z,3.93
2018-12-12T20:47:21.095Z,4.30
2018-12-12T20:49:51.000Z,4.27
2018-12-12T20:52:20.931Z,4.43
2018-12-12T20:54:49.459Z,3.87
2018-12-12T20:57:18.354Z,3.93
2018-12-12T20:59:47.244Z,3.53
2018-12-12T21:02:18.434Z,3.90
2018-12-12T21:04:47.390Z,3.00
2018-12-12T21:07:18.553Z,4.80
2018-12-12T21:09:47.610Z,5.23
2018-12-12T21:12:17.179Z,4.33
2018-12-12T21:14:46.683Z,4.20
2018-12-12T21:17:16.731Z,3.67
2018-12-12T21:19:46.319Z,4.03
2018-12-12T21:22:17.095Z,4.90
2018-12-12T21:24:45.926Z,4.00
2018-12-12T21:27:14.495Z,4.50
2018-12-12T21:29:43.018Z,4.30
2018-12-12T21:32:15.054Z,5.10
2018-12-12T21:34:46.273Z,4.63
2018-12-12T21:37:16.962Z,4.37
2018-12-12T21:39:45.863Z,5.70
2018-12-12T21:42:14.999Z,4.80
2018-12-12T21:44:45.639Z,4.10
2018-12-12T21:47:15.510Z,4.73
2018-12-12T21:49:45.065Z,4.40
2018-12-12T21:52:14.765Z,4.63
2018-12-12T21:54:44.616Z,4.73
2018-12-12T21:57:15.299Z,5.57
2018-12-12T21:59:44.253Z,4.57
2018-12-12T22:02:13.347Z,4.80
2018-12-12T22:04:45.477Z,5.07
2018-12-12T22:07:15.744Z,5.33
2018-12-12T22:09:46.010Z,5.10
2018-12-12T22:12:15.682Z,5.40
2018-12-12T22:14:44.776Z,4.50
2018-12-12T22:17:14.384Z,5.00
2018-12-12T22:19:43.832Z,5.13
2018-12-12T22:22:14.355Z,5.93
2018-12-12T22:24:43.548Z,5.90
2018-12-12T22:27:12.708Z,5.80
2018-12-12T22:29:43.508Z,6.00
2018-12-12T22:32:13.605Z,5.90
2018-12-12T22:34:44.427Z,5.47
2018-12-12T22:37:13.190Z,6.43
2018-12-12T22:39:42.329Z,5.33
2018-12-12T22:42:12.963Z,4.30
2018-12-12T22:44:44.513Z,4.67
2018-12-12T22:47:15.971Z,4.83
2018-12-12T22:49:46.246Z,5.33
2018-12-12T22:52:15.023Z,5.10
2018-12-12T22:54:46.404Z,5.87
2018-12-12T22:57:17.783Z,5.00
2018-12-12T22:59:47.381Z,6.50
2018-12-12T23:02:17.838Z,6.00
2018-12-12T23:04:46.498Z,5.87
2018-12-12T23:07:16.078Z,5.97
2018-12-12T23:09:45.017Z,5.07
2018-12-12T23:12:13.917Z,4.20
2018-12-12T23:14:43.592Z,5.50
2018-12-12T23:17:13.310Z,5.37
2018-12-12T23:19:47.342Z,5.90
2018-12-12T23:22:16.458Z,5.57
2018-12-12T23:24:47.804Z,6.23
2018-12-12T23:27:17.546Z,6.90
2018-12-12T23:29:46.529Z,6.83
2018-12-12T23:32:16.004Z,5.10
2018-12-12T23:34:54.151Z,5.67
2018-12-12T23:37:23.298Z,5.60
2018-12-12T23:39:52.499Z,5.80
2018-12-12T23:42:21.301Z,5.73
2018-12-12T23:44:50.950Z,5.93
2018-12-12T23:47:20.957Z,5.07
2018-12-12T23:49:54.674Z,4.90
2018-12-12T23:52:23.842Z,5.00
2018-12-12T23:54:53.593Z,5.37
2018-12-12T23:57:22.938Z,5.53
2018-12-12T23:59:51.475Z,5.50
